sensor_id;sensor_type;location;lat;lon;timestamp;temperature;humidity
9941;DHT22;5009;50.656;7.188;2023-07-22T02:20:05;12.90;99.90
9941;DHT22;5009;50.656;7.188;2023-07-22T02:22:31;12.90;99.90
9941;DHT22;5009;50.656;7.188;2023-07-22T02:24:57;12.90;99.90
9941;DHT22;5009;50.656;7.188;2023-07-22T02:27:23;12.90;99.90
9941;DHT22;5009;50.656;7.188;2023-07-22T02:29:48;13.00;99.90
9941;DHT22;5009;50.656;7.188;2023-07-22T02:32:14;13.00;99.90
9941;DHT22;5009;50.656;7.188;2023-07-22T02:34:39;12.90;99.90
9941;DHT22;5009;50.656;7.188;2023-07-22T02:37:05;12.90;99.90
9941;DHT22;5009;50.656;7.188;2023-07-22T02:39:31;12.80;99.90
9941;DHT22;5009;50.656;7.188;2023-07-22T02:41:56;12.80;99.90
9941;DHT22;5009;50.656;7.188;2023-07-22T02:44:22;12.80;99.90
9941;DHT22;5009;50.656;7.188;2023-07-22T02:46:47;12.80;99.90
9941;DHT22;5009;50.656;7.188;2023-07-22T02:49:13;12.80;99.90
9941;DHT22;5009;50.656;7.188;2023-07-22T02:51:39;12.80;99.90
9941;DHT22;5009;50.656;7.188;2023-07-22T02:54:04;12.80;99.90
9941;DHT22;5009;50.656;7.188;2023-07-22T02:56:30;12.80;99.90
9941;DHT22;5009;50.656;7.188;2023-07-22T02:58:55;12.70;99.90
9941;DHT22;5009;50.656;7.188;2023-07-22T03:01:21;12.80;99.90
9941;DHT22;5009;50.656;7.188;2023-07-22T03:03:46;12.80;99.90
9941;DHT22;5009;50.656;7.188;2023-07-22T03:06:13;12.80;99.90
9941;DHT22;5009;50.656;7.188;2023-07-22T03:08:39;12.80;99.90
9941;DHT22;5009;50.656;7.188;2023-07-22T03:11:04;12.80;99.90
9941;DHT22;5009;50.656;7.188;2023-07-22T03:13:30;12.80;99.90
9941;DHT22;5009;50.656;7.188;2023-07-22T03:15:56;12.70;99.90
9941;DHT22;5009;50.656;7.188;2023-07-22T03:18:22;12.70;99.90
9941;DHT22;5009;50.656;7.188;2023-07-22T03:20:48;12.70;99.90
9941;DHT22;5009;50.656;7.188;2023-07-22T03:23:14;12.70;99.90
9941;DHT22;5009;50.656;7.188;2023-07-22T03:25:40;12.70;99.90
9941;DHT22;5009;50.656;7.188;2023-07-22T03:28:06;12.60;99.90
9941;DHT22;5009;50.656;7.188;2023-07-22T03:30:32;12.60;99.90
9941;DHT22;5009;50.656;7.188;2023-07-22T03:32:59;12.60;99.90
9941;DHT22;5009;50.656;7.188;2023-07-22T03:35:26;12.60;99.90
9941;DHT22;5009;50.656;7.188;2023-07-22T03:37:51;12.70;99.90
9941;DHT22;5009;50.656;7.188;2023-07-22T03:40:17;12.70;99.90
9941;DHT22;5009;50.656;7.188;2023-07-22T03:42:52;12.70;99.90
9941;DHT22;5009;50.656;7.188;2023-07-22T03:45:19;12.50;99.90
9941;DHT22;5009;50.656;7.188;2023-07-22T03:47:45;12.60;99.90
9941;DHT22;5009;50.656;7.188;2023-07-22T03:50:11;12.60;99.90
9941;DHT22;5009;50.656;7.188;2023-07-22T03:52:37;12.60;99.90
9941;DHT22;5009;50.656;7.188;2023-07-22T03:55:03;12.60;99.90
9941;DHT22;5009;50.656;7.188;2023-07-22T03:57:29;12.60;99.90
9941;DHT22;5009;50.656;7.188;2023-07-22T03:59:55;12.60;99.90
9941;DHT22;5009;50.656;7.188;2023-07-22T04:02:21;12.70;99.90
9941;DHT22;5009;50.656;7.188;2023-07-22T04:04:46;12.70;99.90
9941;DHT22;5009;50.656;7.188;2023-07-22T04:07:12;12.60;99.90
9941;DHT22;5009;50.656;7.188;2023-07-22T04:09:38;12.60;99.90
9941;DHT22;5009;50.656;7.188;2023-07-22T04:12:04;12.70;99.90
9941;DHT22;5009;50.656;7.188;2023-07-22T04:14:30;12.50;99.90
9941;DHT22;5009;50.656;7.188;2023-07-22T04:16:55;12.50;99.90
9941;DHT22;5009;50.656;7.188;2023-07-22T04:19:21;12.50;99.90
9941;DHT22;5009;50.656;7.188;2023-07-22T04:21:46;12.50;99.90
9941;DHT22;5009;50.656;7.188;2023-07-22T04:24:12;12.50;99.90
9941;DHT22;5009;50.656;7.188;2023-07-22T04:26:37;12.50;99.90
9941;DHT22;5009;50.656;7.188;2023-07-22T04:29:03;12.60;99.90
9941;DHT22;5009;50.656;7.188;2023-07-22T04:31:29;12.60;99.90
9941;DHT22;5009;50.656;7.188;2023-07-22T04:33:54;12.60;99.90
9941;DHT22;5009;50.656;7.188;2023-07-22T04:36:20;12.60;99.90
9941;DHT22;5009;50.656;7.188;2023-07-22T04:38:45;12.70;99.90
9941;DHT22;5009;50.656;7.188;2023-07-22T04:41:11;12.90;99.90
9941;DHT22;5009;50.656;7.188;2023-07-22T04:43:36;13.00;99.90
9941;DHT22;5009;50.656;7.188;2023-07-22T04:46:02;13.20;99.90
9941;DHT22;5009;50.656;7.188;2023-07-22T04:48:27;13.30;99.90
9941;DHT22;5009;50.656;7.188;2023-07-22T04:50:53;13.50;99.90
9941;DHT22;5009;50.656;7.188;2023-07-22T04:53:18;13.60;99.90
9941;DHT22;5009;50.656;7.188;2023-07-22T04:55:44;13.80;99.90
9941;DHT22;5009;50.656;7.188;2023-07-22T04:58:10;13.90;99.90
9941;DHT22;5009;50.656;7.188;2023-07-22T05:00:39;14.00;99.90
9941;DHT22;5009;50.656;7.188;2023-07-22T05:03:05;14.00;99.90
9941;DHT22;5009;50.656;7.188;2023-07-22T05:05:31;14.20;99.90
9941;DHT22;5009;50.656;7.188;2023-07-22T05:07:56;14.20;99.90
9941;DHT22;5009;50.656;7.188;2023-07-22T05:10:22;14.30;99.90
9941;DHT22;5009;50.656;7.188;2023-07-22T05:12:48;14.30;99.90
9941;DHT22;5009;50.656;7.188;2023-07-22T05:15:13;14.40;99.90
9941;DHT22;5009;50.656;7.188;2023-07-22T05:17:39;14.40;99.90
9941;DHT22;5009;50.656;7.188;2023-07-22T05:20:05;14.60;99.90
9941;DHT22;5009;50.656;7.188;2023-07-22T05:22:38;15.00;99.90
9941;DHT22;5009;50.656;7.188;2023-07-22T05:25:05;15.50;99.90
9941;DHT22;5009;50.656;7.188;2023-07-22T05:27:31;16.10;99.90
9941;DHT22;5009;50.656;7.188;2023-07-22T05:29:56;16.80;99.90
9941;DHT22;5009;50.656;7.188;2023-07-22T05:32:22;16.90;99.90
9941;DHT22;5009;50.656;7.188;2023-07-22T05:34:47;17.60;99.90
9941;DHT22;5009;50.656;7.188;2023-07-22T05:37:13;18.30;99.90
9941;DHT22;5009;50.656;7.188;2023-07-22T05:39:38;19.00;99.90
9941;DHT22;5009;50.656;7.188;2023-07-22T05:42:04;19.70;98.00
9941;DHT22;5009;50.656;7.188;2023-07-22T05:44:30;20.90;94.20
9941;DHT22;5009;50.656;7.188;2023-07-22T05:46:55;21.60;92.00
9941;DHT22;5009;50.656;7.188;2023-07-22T05:49:21;21.40;90.30
9941;DHT22;5009;50.656;7.188;2023-07-22T05:51:47;22.00;88.80
9941;DHT22;5009;50.656;7.188;2023-07-22T05:54:12;22.40;87.10
9941;DHT22;5009;50.656;7.188;2023-07-22T05:56:38;23.10;85.20
9941;DHT22;5009;50.656;7.188;2023-07-22T05:59:03;23.80;82.10
9941;DHT22;5009;50.656;7.188;2023-07-22T06:01:29;24.60;79.40
9941;DHT22;5009;50.656;7.188;2023-07-22T06:03:55;24.50;76.20
9941;DHT22;5009;50.656;7.188;2023-07-22T06:06:20;24.20;73.80
9941;DHT22;5009;50.656;7.188;2023-07-22T06:08:46;24.50;72.70
9941;DHT22;5009;50.656;7.188;2023-07-22T06:11:12;24.40;73.50
9941;DHT22;5009;50.656;7.188;2023-07-22T06:13:37;24.10;72.80
9941;DHT22;5009;50.656;7.188;2023-07-22T06:16:03;25.00;71.50
9941;DHT22;5009;50.656;7.188;2023-07-22T06:18:29;25.50;70.00
9941;DHT22;5009;50.656;7.188;2023-07-22T06:20:54;25.50;66.90
9941;DHT22;5009;50.656;7.188;2023-07-22T06:23:20;26.20;65.90
9941;DHT22;5009;50.656;7.188;2023-07-22T06:25:45;26.30;62.30
9941;DHT22;5009;50.656;7.188;2023-07-22T06:28:11;26.50;63.10
9941;DHT22;5009;50.656;7.188;2023-07-22T06:30:36;26.90;59.30
9941;DHT22;5009;50.656;7.188;2023-07-22T06:33:02;27.90;58.90
9941;DHT22;5009;50.656;7.188;2023-07-22T06:35:28;28.50;56.40
9941;DHT22;5009;50.656;7.188;2023-07-22T06:37:53;29.20;54.70
9941;DHT22;5009;50.656;7.188;2023-07-22T06:40:19;28.90;54.60
9941;DHT22;5009;50.656;7.188;2023-07-22T06:42:44;28.30;53.10
9941;DHT22;5009;50.656;7.188;2023-07-22T06:45:10;29.10;53.80
9941;DHT22;5009;50.656;7.188;2023-07-22T06:47:36;29.80;53.00
9941;DHT22;5009;50.656;7.188;2023-07-22T06:50:03;30.50;51.20
9941;DHT22;5009;50.656;7.188;2023-07-22T06:52:30;30.80;50.20
9941;DHT22;5009;50.656;7.188;2023-07-22T06:54:55;31.30;50.10
9941;DHT22;5009;50.656;7.188;2023-07-22T06:57:21;31.50;48.80
9941;DHT22;5009;50.656;7.188;2023-07-22T06:59:47;30.30;48.30
9941;DHT22;5009;50.656;7.188;2023-07-22T07:02:12;30.80;48.20
9941;DHT22;5009;50.656;7.188;2023-07-22T07:04:38;31.20;48.20
9941;DHT22;5009;50.656;7.188;2023-07-22T07:07:04;31.60;47.70
9941;DHT22;5009;50.656;7.188;2023-07-22T07:09:29;30.90;47.60
9941;DHT22;5009;50.656;7.188;2023-07-22T07:11:55;31.90;47.20
9941;DHT22;5009;50.656;7.188;2023-07-22T07:14:22;32.00;46.10
9941;DHT22;5009;50.656;7.188;2023-07-22T07:16:49;31.40;46.40
9941;DHT22;5009;50.656;7.188;2023-07-22T07:19:14;32.70;46.40
9941;DHT22;5009;50.656;7.188;2023-07-22T07:21:40;33.30;45.10
9941;DHT22;5009;50.656;7.188;2023-07-22T07:24:05;33.00;44.50
9941;DHT22;5009;50.656;7.188;2023-07-22T07:26:31;32.50;44.00
9941;DHT22;5009;50.656;7.188;2023-07-22T07:28:57;31.00;45.40
9941;DHT22;5009;50.656;7.188;2023-07-22T07:31:22;30.60;46.00
9941;DHT22;5009;50.656;7.188;2023-07-22T07:33:48;31.00;46.30
9941;DHT22;5009;50.656;7.188;2023-07-22T07:36:13;31.60;45.80
9941;DHT22;5009;50.656;7.188;2023-07-22T07:38:40;31.80;45.80
9941;DHT22;5009;50.656;7.188;2023-07-22T07:41:06;32.60;45.50
9941;DHT22;5009;50.656;7.188;2023-07-22T07:43:34;33.40;45.70
9941;DHT22;5009;50.656;7.188;2023-07-22T07:48:44;34.60;43.50
9941;DHT22;5009;50.656;7.188;2023-07-22T07:51:12;35.50;43.10
9941;DHT22;5009;50.656;7.188;2023-07-22T07:53:38;35.80;42.50
9941;DHT22;5009;50.656;7.188;2023-07-22T07:56:04;35.30;42.10
9941;DHT22;5009;50.656;7.188;2023-07-22T07:58:29;34.90;41.50
9941;DHT22;5009;50.656;7.188;2023-07-22T08:00:55;34.50;42.10
9941;DHT22;5009;50.656;7.188;2023-07-22T08:03:20;34.50;41.40
9941;DHT22;5009;50.656;7.188;2023-07-22T08:05:46;33.50;41.60
9941;DHT22;5009;50.656;7.188;2023-07-22T08:08:11;31.30;42.10
9941;DHT22;5009;50.656;7.188;2023-07-22T08:10:37;30.40;43.20
9941;DHT22;5009;50.656;7.188;2023-07-22T08:13:04;30.20;43.50
9941;DHT22;5009;50.656;7.188;2023-07-22T08:15:30;29.20;44.10
9941;DHT22;5009;50.656;7.188;2023-07-22T08:17:55;29.30;45.30
9941;DHT22;5009;50.656;7.188;2023-07-22T08:20:21;29.70;45.10
9941;DHT22;5009;50.656;7.188;2023-07-22T08:22:46;28.90;45.30
9941;DHT22;5009;50.656;7.188;2023-07-22T08:25:12;29.40;45.30
9941;DHT22;5009;50.656;7.188;2023-07-22T08:27:37;28.60;45.20
9941;DHT22;5009;50.656;7.188;2023-07-22T08:30:03;28.30;46.20
9941;DHT22;5009;50.656;7.188;2023-07-22T08:32:29;28.60;46.40
9941;DHT22;5009;50.656;7.188;2023-07-22T08:34:54;28.80;46.10
9941;DHT22;5009;50.656;7.188;2023-07-22T08:37:20;28.40;45.30
9941;DHT22;5009;50.656;7.188;2023-07-22T08:39:45;28.60;45.80
9941;DHT22;5009;50.656;7.188;2023-07-22T08:42:11;29.00;46.30
9941;DHT22;5009;50.656;7.188;2023-07-22T08:44:43;29.50;46.40
9941;DHT22;5009;50.656;7.188;2023-07-22T08:47:10;29.00;45.10
9941;DHT22;5009;50.656;7.188;2023-07-22T08:49:38;29.30;45.30
9941;DHT22;5009;50.656;7.188;2023-07-22T08:52:05;29.50;43.60
9941;DHT22;5009;50.656;7.188;2023-07-22T08:54:31;29.50;44.00
9941;DHT22;5009;50.656;7.188;2023-07-22T08:56:57;29.40;44.60
9941;DHT22;5009;50.656;7.188;2023-07-22T08:59:24;29.40;44.20
9941;DHT22;5009;50.656;7.188;2023-07-22T09:01:50;28.10;45.00
9941;DHT22;5009;50.656;7.188;2023-07-22T09:04:17;27.70;44.50
9941;DHT22;5009;50.656;7.188;2023-07-22T09:06:45;28.30;45.30
9941;DHT22;5009;50.656;7.188;2023-07-22T09:09:11;28.20;45.40
9941;DHT22;5009;50.656;7.188;2023-07-22T09:11:38;28.60;45.10
9941;DHT22;5009;50.656;7.188;2023-07-22T09:14:03;27.80;43.50
9941;DHT22;5009;50.656;7.188;2023-07-22T09:16:32;27.80;44.40
9941;DHT22;5009;50.656;7.188;2023-07-22T09:18:58;27.80;44.80
9941;DHT22;5009;50.656;7.188;2023-07-22T09:21:24;27.90;44.10
9941;DHT22;5009;50.656;7.188;2023-07-22T09:23:50;27.80;42.50
9941;DHT22;5009;50.656;7.188;2023-07-22T09:26:17;28.00;42.80
9941;DHT22;5009;50.656;7.188;2023-07-22T09:28:56;28.00;42.60
9941;DHT22;5009;50.656;7.188;2023-07-22T09:31:24;28.40;43.30
9941;DHT22;5009;50.656;7.188;2023-07-22T09:33:50;28.60;43.20
9941;DHT22;5009;50.656;7.188;2023-07-22T09:36:16;28.50;42.10
9941;DHT22;5009;50.656;7.188;2023-07-22T09:38:42;28.50;41.70
9941;DHT22;5009;50.656;7.188;2023-07-22T09:41:07;28.10;41.60
9941;DHT22;5009;50.656;7.188;2023-07-22T09:43:38;27.50;40.50
9941;DHT22;5009;50.656;7.188;2023-07-22T09:46:11;27.70;41.30
9941;DHT22;5009;50.656;7.188;2023-07-22T09:48:44;27.60;42.50
9941;DHT22;5009;50.656;7.188;2023-07-22T09:51:16;27.50;42.10
9941;DHT22;5009;50.656;7.188;2023-07-22T09:53:46;27.10;41.20
9941;DHT22;5009;50.656;7.188;2023-07-22T09:56:12;27.30;41.80
9941;DHT22;5009;50.656;7.188;2023-07-22T09:58:39;27.10;41.30
9941;DHT22;5009;50.656;7.188;2023-07-22T10:01:05;26.90;40.80
9941;DHT22;5009;50.656;7.188;2023-07-22T10:03:32;26.70;40.40
9941;DHT22;5009;50.656;7.188;2023-07-22T10:06:00;26.80;40.90
9941;DHT22;5009;50.656;7.188;2023-07-22T10:08:30;27.10;41.60
9941;DHT22;5009;50.656;7.188;2023-07-22T10:10:59;26.80;40.80
9941;DHT22;5009;50.656;7.188;2023-07-22T10:13:25;26.40;40.20
9941;DHT22;5009;50.656;7.188;2023-07-22T10:15:52;26.20;40.20
9941;DHT22;5009;50.656;7.188;2023-07-22T10:18:18;26.60;41.40
9941;DHT22;5009;50.656;7.188;2023-07-22T10:20:46;26.80;42.10
9941;DHT22;5009;50.656;7.188;2023-07-22T10:23:13;26.80;41.10
9941;DHT22;5009;50.656;7.188;2023-07-22T10:25:39;27.10;41.10
9941;DHT22;5009;50.656;7.188;2023-07-22T10:28:06;27.40;41.50
9941;DHT22;5009;50.656;7.188;2023-07-22T10:30:32;27.40;39.80
9941;DHT22;5009;50.656;7.188;2023-07-22T10:32:58;27.20;39.90
9941;DHT22;5009;50.656;7.188;2023-07-22T10:37:55;27.50;40.50
9941;DHT22;5009;50.656;7.188;2023-07-22T10:40:29;27.60;40.40
9941;DHT22;5009;50.656;7.188;2023-07-22T10:43:03;27.60;40.20
9941;DHT22;5009;50.656;7.188;2023-07-22T10:45:32;27.50;40.00
9941;DHT22;5009;50.656;7.188;2023-07-22T10:48:15;27.30;40.10
9941;DHT22;5009;50.656;7.188;2023-07-22T10:50:53;27.40;39.80
9941;DHT22;5009;50.656;7.188;2023-07-22T10:56:06;27.30;39.80
9941;DHT22;5009;50.656;7.188;2023-07-22T11:04:25;27.40;39.60
9941;DHT22;5009;50.656;7.188;2023-07-22T11:07:04;27.40;39.90
9941;DHT22;5009;50.656;7.188;2023-07-22T11:12:07;27.10;39.90
9941;DHT22;5009;50.656;7.188;2023-07-22T11:14:53;27.10;39.20
9941;DHT22;5009;50.656;7.188;2023-07-22T11:17:31;26.80;38.80
9941;DHT22;5009;50.656;7.188;2023-07-22T11:19:58;26.80;39.40
9941;DHT22;5009;50.656;7.188;2023-07-22T11:22:24;26.70;38.80
9941;DHT22;5009;50.656;7.188;2023-07-22T11:24:49;26.70;39.10
9941;DHT22;5009;50.656;7.188;2023-07-22T11:27:15;26.80;39.00
9941;DHT22;5009;50.656;7.188;2023-07-22T11:29:41;26.80;39.00
9941;DHT22;5009;50.656;7.188;2023-07-22T11:32:14;26.80;39.30
9941;DHT22;5009;50.656;7.188;2023-07-22T11:34:41;26.90;39.80
9941;DHT22;5009;50.656;7.188;2023-07-22T11:37:10;26.80;39.20
9941;DHT22;5009;50.656;7.188;2023-07-22T11:39:35;26.60;39.10
9941;DHT22;5009;50.656;7.188;2023-07-22T11:42:03;26.70;39.30
9941;DHT22;5009;50.656;7.188;2023-07-22T11:44:29;26.70;39.80
9941;DHT22;5009;50.656;7.188;2023-07-22T11:47:00;26.80;39.90
9941;DHT22;5009;50.656;7.188;2023-07-22T11:49:37;26.90;40.20
9941;DHT22;5009;50.656;7.188;2023-07-22T11:52:05;26.90;39.60
9941;DHT22;5009;50.656;7.188;2023-07-22T11:54:33;27.00;40.40
9941;DHT22;5009;50.656;7.188;2023-07-22T11:57:16;27.00;40.70
9941;DHT22;5009;50.656;7.188;2023-07-22T11:59:50;27.00;40.40
9941;DHT22;5009;50.656;7.188;2023-07-22T12:02:27;27.00;39.50
9941;DHT22;5009;50.656;7.188;2023-07-22T12:05:04;26.90;40.10
9941;DHT22;5009;50.656;7.188;2023-07-22T12:07:37;26.90;40.60
9941;DHT22;5009;50.656;7.188;2023-07-22T12:10:07;26.80;39.60
9941;DHT22;5009;50.656;7.188;2023-07-22T12:12:47;26.70;39.30
9941;DHT22;5009;50.656;7.188;2023-07-22T12:15:21;26.60;40.00
9941;DHT22;5009;50.656;7.188;2023-07-22T12:17:54;26.50;39.70
9941;DHT22;5009;50.656;7.188;2023-07-22T12:20:27;26.50;40.30
9941;DHT22;5009;50.656;7.188;2023-07-22T12:22:54;26.60;40.70
9941;DHT22;5009;50.656;7.188;2023-07-22T12:25:20;26.60;40.10
9941;DHT22;5009;50.656;7.188;2023-07-22T12:27:45;26.60;39.80
9941;DHT22;5009;50.656;7.188;2023-07-22T12:30:11;26.50;39.60
9941;DHT22;5009;50.656;7.188;2023-07-22T12:32:38;26.40;39.90
9941;DHT22;5009;50.656;7.188;2023-07-22T12:35:04;26.40;39.90
9941;DHT22;5009;50.656;7.188;2023-07-22T12:37:30;26.40;40.30
9941;DHT22;5009;50.656;7.188;2023-07-22T12:39:56;26.40;40.50
9941;DHT22;5009;50.656;7.188;2023-07-22T12:42:21;26.40;40.20
9941;DHT22;5009;50.656;7.188;2023-07-22T12:44:47;26.30;40.20
9941;DHT22;5009;50.656;7.188;2023-07-22T12:47:13;26.30;40.20
9941;DHT22;5009;50.656;7.188;2023-07-22T12:49:38;26.30;40.60
9941;DHT22;5009;50.656;7.188;2023-07-22T12:52:04;26.10;39.60
9941;DHT22;5009;50.656;7.188;2023-07-22T12:54:34;26.10;39.70
9941;DHT22;5009;50.656;7.188;2023-07-22T12:57:00;26.20;40.10
9941;DHT22;5009;50.656;7.188;2023-07-22T12:59:26;26.20;40.60
9941;DHT22;5009;50.656;7.188;2023-07-22T13:01:51;26.20;40.10
9941;DHT22;5009;50.656;7.188;2023-07-22T13:04:17;26.20;40.50
9941;DHT22;5009;50.656;7.188;2023-07-22T13:06:42;26.10;40.20
9941;DHT22;5009;50.656;7.188;2023-07-22T13:09:08;26.00;40.10
9941;DHT22;5009;50.656;7.188;2023-07-22T13:11:34;26.00;40.70
9941;DHT22;5009;50.656;7.188;2023-07-22T13:14:01;26.00;40.50
9941;DHT22;5009;50.656;7.188;2023-07-22T13:16:27;26.00;40.70
9941;DHT22;5009;50.656;7.188;2023-07-22T13:18:53;26.00;40.50
9941;DHT22;5009;50.656;7.188;2023-07-22T13:21:18;26.00;41.00
9941;DHT22;5009;50.656;7.188;2023-07-22T13:23:44;26.00;40.40
9941;DHT22;5009;50.656;7.188;2023-07-22T13:26:09;26.10;40.70
9941;DHT22;5009;50.656;7.188;2023-07-22T13:28:35;26.10;40.50
9941;DHT22;5009;50.656;7.188;2023-07-22T13:31:00;26.10;40.50
9941;DHT22;5009;50.656;7.188;2023-07-22T13:33:26;26.10;40.30
9941;DHT22;5009;50.656;7.188;2023-07-22T13:35:51;26.10;40.20
9941;DHT22;5009;50.656;7.188;2023-07-22T13:38:17;26.10;40.60
9941;DHT22;5009;50.656;7.188;2023-07-22T13:40:43;26.20;40.50
9941;DHT22;5009;50.656;7.188;2023-07-22T13:43:08;26.20;40.20
9941;DHT22;5009;50.656;7.188;2023-07-22T13:45:35;26.20;40.00
9941;DHT22;5009;50.656;7.188;2023-07-22T13:48:00;26.20;40.30
9941;DHT22;5009;50.656;7.188;2023-07-22T13:50:26;26.10;40.30
9941;DHT22;5009;50.656;7.188;2023-07-22T13:52:51;26.00;40.80
9941;DHT22;5009;50.656;7.188;2023-07-22T13:55:17;25.90;40.80
9941;DHT22;5009;50.656;7.188;2023-07-22T13:57:43;25.80;41.40
9941;DHT22;5009;50.656;7.188;2023-07-22T14:00:11;25.70;43.20
9941;DHT22;5009;50.656;7.188;2023-07-22T14:02:37;25.60;44.20
9941;DHT22;5009;50.656;7.188;2023-07-22T14:05:03;25.50;42.70
9941;DHT22;5009;50.656;7.188;2023-07-22T14:07:29;25.30;44.00
9941;DHT22;5009;50.656;7.188;2023-07-22T14:09:55;25.10;44.00
9941;DHT22;5009;50.656;7.188;2023-07-22T14:12:20;25.20;45.90
9941;DHT22;5009;50.656;7.188;2023-07-22T14:14:46;25.10;44.50
9941;DHT22;5009;50.656;7.188;2023-07-22T14:17:12;24.90;42.70
9941;DHT22;5009;50.656;7.188;2023-07-22T14:19:37;24.90;46.00
9941;DHT22;5009;50.656;7.188;2023-07-22T14:22:03;24.90;42.90
9941;DHT22;5009;50.656;7.188;2023-07-22T14:24:29;24.90;43.10
9941;DHT22;5009;50.656;7.188;2023-07-22T14:26:55;24.90;42.90
9941;DHT22;5009;50.656;7.188;2023-07-22T14:29:21;25.00;43.40
9941;DHT22;5009;50.656;7.188;2023-07-22T14:31:47;25.00;42.90
9941;DHT22;5009;50.656;7.188;2023-07-22T14:34:12;25.00;43.10
9941;DHT22;5009;50.656;7.188;2023-07-22T14:36:38;24.90;44.10
9941;DHT22;5009;50.656;7.188;2023-07-22T14:39:03;24.90;44.40
9941;DHT22;5009;50.656;7.188;2023-07-22T14:41:30;24.90;44.90
9941;DHT22;5009;50.656;7.188;2023-07-22T14:43:56;25.00;46.00
9941;DHT22;5009;50.656;7.188;2023-07-22T14:46:22;24.90;43.50
9941;DHT22;5009;50.656;7.188;2023-07-22T14:48:48;24.90;43.40
9941;DHT22;5009;50.656;7.188;2023-07-22T14:51:14;25.00;43.80
9941;DHT22;5009;50.656;7.188;2023-07-22T14:53:39;25.00;43.20
9941;DHT22;5009;50.656;7.188;2023-07-22T14:56:05;25.00;43.20
9941;DHT22;5009;50.656;7.188;2023-07-22T14:58:32;25.00;43.90
9941;DHT22;5009;50.656;7.188;2023-07-22T15:00:58;25.00;44.80
9941;DHT22;5009;50.656;7.188;2023-07-22T15:03:23;25.00;43.70
9941;DHT22;5009;50.656;7.188;2023-07-22T15:05:49;24.90;42.90
9941;DHT22;5009;50.656;7.188;2023-07-22T15:08:14;25.00;43.20
9941;DHT22;5009;50.656;7.188;2023-07-22T15:10:40;24.90;43.10
9941;DHT22;5009;50.656;7.188;2023-07-22T15:13:06;25.00;43.80
9941;DHT22;5009;50.656;7.188;2023-07-22T15:15:31;25.00;43.80
9941;DHT22;5009;50.656;7.188;2023-07-22T15:17:57;25.00;43.50
9941;DHT22;5009;50.656;7.188;2023-07-22T15:20:22;25.00;43.10
9941;DHT22;5009;50.656;7.188;2023-07-22T15:22:49;25.00;42.70
9941;DHT22;5009;50.656;7.188;2023-07-22T15:25:14;25.00;42.60
9941;DHT22;5009;50.656;7.188;2023-07-22T15:27:40;25.00;43.20
9941;DHT22;5009;50.656;7.188;2023-07-22T15:30:06;25.00;43.40
9941;DHT22;5009;50.656;7.188;2023-07-22T15:32:32;25.00;43.60
9941;DHT22;5009;50.656;7.188;2023-07-22T15:34:58;25.10;43.50
9941;DHT22;5009;50.656;7.188;2023-07-22T15:37:23;25.10;42.90
9941;DHT22;5009;50.656;7.188;2023-07-22T15:39:50;25.00;43.00
9941;DHT22;5009;50.656;7.188;2023-07-22T15:42:16;25.10;43.20
9941;DHT22;5009;50.656;7.188;2023-07-22T15:44:42;25.00;43.00
9941;DHT22;5009;50.656;7.188;2023-07-22T15:47:07;25.00;42.90
9941;DHT22;5009;50.656;7.188;2023-07-22T15:49:33;25.10;43.00
9941;DHT22;5009;50.656;7.188;2023-07-22T15:51:58;25.00;43.00
9941;DHT22;5009;50.656;7.188;2023-07-22T15:54:24;25.00;43.20
9941;DHT22;5009;50.656;7.188;2023-07-22T15:56:50;25.10;43.50
9941;DHT22;5009;50.656;7.188;2023-07-22T15:59:16;25.00;44.10
9941;DHT22;5009;50.656;7.188;2023-07-22T16:01:41;25.00;44.80
9941;DHT22;5009;50.656;7.188;2023-07-22T16:04:08;25.00;44.10
9941;DHT22;5009;50.656;7.188;2023-07-22T16:06:33;24.90;44.10
9941;DHT22;5009;50.656;7.188;2023-07-22T16:08:59;24.90;44.80
9941;DHT22;5009;50.656;7.188;2023-07-22T16:11:25;24.80;44.90
9941;DHT22;5009;50.656;7.188;2023-07-22T16:13:50;24.80;44.20
9941;DHT22;5009;50.656;7.188;2023-07-22T16:16:16;24.80;44.00
9941;DHT22;5009;50.656;7.188;2023-07-22T16:18:41;24.80;43.60
9941;DHT22;5009;50.656;7.188;2023-07-22T16:21:07;24.80;43.70
9941;DHT22;5009;50.656;7.188;2023-07-22T16:23:33;24.80;44.90
9941;DHT22;5009;50.656;7.188;2023-07-22T16:25:59;24.80;44.40
9941;DHT22;5009;50.656;7.188;2023-07-22T16:28:24;24.80;43.70
9941;DHT22;5009;50.656;7.188;2023-07-22T16:30:50;24.80;44.10
9941;DHT22;5009;50.656;7.188;2023-07-22T16:33:16;24.70;44.00
9941;DHT22;5009;50.656;7.188;2023-07-22T16:35:42;24.70;44.40
9941;DHT22;5009;50.656;7.188;2023-07-22T16:38:08;24.70;44.00
9941;DHT22;5009;50.656;7.188;2023-07-22T16:40:33;24.70;43.80
9941;DHT22;5009;50.656;7.188;2023-07-22T16:42:59;24.70;43.80
9941;DHT22;5009;50.656;7.188;2023-07-22T16:45:24;24.60;43.60
9941;DHT22;5009;50.656;7.188;2023-07-22T16:47:50;24.70;44.00
9941;DHT22;5009;50.656;7.188;2023-07-22T16:50:15;24.60;43.80
9941;DHT22;5009;50.656;7.188;2023-07-22T16:52:41;24.60;44.40
9941;DHT22;5009;50.656;7.188;2023-07-22T16:55:07;24.60;43.90
9941;DHT22;5009;50.656;7.188;2023-07-22T16:57:34;24.60;43.90
9941;DHT22;5009;50.656;7.188;2023-07-22T17:00:01;24.50;43.70
9941;DHT22;5009;50.656;7.188;2023-07-22T17:02:26;24.50;43.80
9941;DHT22;5009;50.656;7.188;2023-07-22T17:04:52;24.40;43.80
9941;DHT22;5009;50.656;7.188;2023-07-22T17:07:18;24.40;43.60
9941;DHT22;5009;50.656;7.188;2023-07-22T17:09:44;24.40;43.70
9941;DHT22;5009;50.656;7.188;2023-07-22T17:12:09;24.30;44.50
9941;DHT22;5009;50.656;7.188;2023-07-22T17:14:35;24.30;43.70
9941;DHT22;5009;50.656;7.188;2023-07-22T17:17:00;24.20;43.70
9941;DHT22;5009;50.656;7.188;2023-07-22T17:19:29;24.30;44.00
9941;DHT22;5009;50.656;7.188;2023-07-22T17:21:54;24.30;44.50
9941;DHT22;5009;50.656;7.188;2023-07-22T17:24:20;24.30;44.20
9941;DHT22;5009;50.656;7.188;2023-07-22T17:26:45;24.30;44.00
9941;DHT22;5009;50.656;7.188;2023-07-22T17:29:11;24.20;44.40
9941;DHT22;5009;50.656;7.188;2023-07-22T17:31:36;24.30;44.20
9941;DHT22;5009;50.656;7.188;2023-07-22T17:34:02;24.20;44.10
9941;DHT22;5009;50.656;7.188;2023-07-22T17:36:27;24.20;44.40
9941;DHT22;5009;50.656;7.188;2023-07-22T17:38:53;24.20;44.20
9941;DHT22;5009;50.656;7.188;2023-07-22T17:41:19;24.20;44.50
9941;DHT22;5009;50.656;7.188;2023-07-22T17:43:45;24.20;44.80
9941;DHT22;5009;50.656;7.188;2023-07-22T17:46:10;24.20;44.80
9941;DHT22;5009;50.656;7.188;2023-07-22T17:48:36;24.10;45.00
9941;DHT22;5009;50.656;7.188;2023-07-22T17:51:01;24.00;44.70
9941;DHT22;5009;50.656;7.188;2023-07-22T17:53:27;24.10;45.00
9941;DHT22;5009;50.656;7.188;2023-07-22T17:55:52;24.00;44.90
9941;DHT22;5009;50.656;7.188;2023-07-22T17:58:18;24.00;44.90
9941;DHT22;5009;50.656;7.188;2023-07-22T18:00:43;23.90;44.70
9941;DHT22;5009;50.656;7.188;2023-07-22T18:03:09;23.90;44.50
9941;DHT22;5009;50.656;7.188;2023-07-22T18:05:34;23.90;45.00
9941;DHT22;5009;50.656;7.188;2023-07-22T18:08:00;23.80;44.80
9941;DHT22;5009;50.656;7.188;2023-07-22T18:10:25;23.80;45.10
9941;DHT22;5009;50.656;7.188;2023-07-22T18:12:51;23.80;45.20
9941;DHT22;5009;50.656;7.188;2023-07-22T18:15:17;23.80;44.90
9941;DHT22;5009;50.656;7.188;2023-07-22T18:17:42;23.70;44.90
9941;DHT22;5009;50.656;7.188;2023-07-22T18:20:08;23.60;45.00
9941;DHT22;5009;50.656;7.188;2023-07-22T18:22:34;23.60;45.00
9941;DHT22;5009;50.656;7.188;2023-07-22T18:25:03;23.60;45.00
9941;DHT22;5009;50.656;7.188;2023-07-22T18:27:29;23.60;45.80
9941;DHT22;5009;50.656;7.188;2023-07-22T18:29:54;23.60;45.50
9941;DHT22;5009;50.656;7.188;2023-07-22T18:32:24;23.60;46.40